sensor_id;sensor_type;location;lat;lon;timestamp;P1;durP1;ratioP1;P2;durP2;ratioP2
261;SDS011;114;48.260;10.988;2022-12-29T00:02:12;1.00;;;0.90;;
261;SDS011;114;48.260;10.988;2022-12-29T00:04:38;0.83;;;0.83;;
261;SDS011;114;48.260;10.988;2022-12-29T00:07:05;2.87;;;1.07;;
261;SDS011;114;48.260;10.988;2022-12-29T00:09:32;0.80;;;0.80;;
261;SDS011;114;48.260;10.988;2022-12-29T00:11:59;1.97;;;1.07;;
261;SDS011;114;48.260;10.988;2022-12-29T00:14:26;0.97;;;0.87;;
261;SDS011;114;48.260;10.988;2022-12-29T00:17:12;1.43;;;0.83;;
261;SDS011;114;48.260;10.988;2022-12-29T00:19:39;0.97;;;0.83;;
261;SDS011;114;48.260;10.988;2022-12-29T00:22:24;1.10;;;1.10;;
261;SDS011;114;48.260;10.988;2022-12-29T00:25:09;3.60;;;1.20;;
261;SDS011;114;48.260;10.988;2022-12-29T00:27:54;0.90;;;0.90;;
261;SDS011;114;48.260;10.988;2022-12-29T00:30:39;2.30;;;1.27;;
261;SDS011;114;48.260;10.988;2022-12-29T00:33:33;1.40;;;1.00;;
261;SDS011;114;48.260;10.988;2022-12-29T00:36:37;2.20;;;1.23;;
261;SDS011;114;48.260;10.988;2022-12-29T00:39:09;2.70;;;0.77;;
261;SDS011;114;48.260;10.988;2022-12-29T00:42:04;1.17;;;1.07;;
261;SDS011;114;48.260;10.988;2022-12-29T00:45:04;2.23;;;0.90;;
261;SDS011;114;48.260;10.988;2022-12-29T00:47:31;0.93;;;0.83;;
261;SDS011;114;48.260;10.988;2022-12-29T00:49:56;3.80;;;0.93;;
261;SDS011;114;48.260;10.988;2022-12-29T00:52:22;0.97;;;0.73;;
261;SDS011;114;48.260;10.988;2022-12-29T00:54:48;0.93;;;0.83;;
261;SDS011;114;48.260;10.988;2022-12-29T00:57:14;0.60;;;0.60;;
261;SDS011;114;48.260;10.988;2022-12-29T00:59:40;0.73;;;0.73;;
261;SDS011;114;48.260;10.988;2022-12-29T01:02:07;1.33;;;0.70;;
261;SDS011;114;48.260;10.988;2022-12-29T01:04:34;0.63;;;0.60;;
261;SDS011;114;48.260;10.988;2022-12-29T01:06:59;2.00;;;0.70;;
261;SDS011;114;48.260;10.988;2022-12-29T01:09:25;0.87;;;0.57;;
261;SDS011;114;48.260;10.988;2022-12-29T01:12:11;0.70;;;0.70;;
261;SDS011;114;48.260;10.988;2022-12-29T01:14:38;1.00;;;0.60;;
261;SDS011;114;48.260;10.988;2022-12-29T01:17:04;1.47;;;0.77;;
261;SDS011;114;48.260;10.988;2022-12-29T01:19:30;3.40;;;0.80;;
261;SDS011;114;48.260;10.988;2022-12-29T01:21:56;0.67;;;0.60;;
261;SDS011;114;48.260;10.988;2022-12-29T01:24:22;0.70;;;0.70;;
261;SDS011;114;48.260;10.988;2022-12-29T01:26:48;0.60;;;0.50;;
261;SDS011;114;48.260;10.988;2022-12-29T01:29:14;1.47;;;0.50;;
261;SDS011;114;48.260;10.988;2022-12-29T01:31:40;1.20;;;0.53;;
261;SDS011;114;48.260;10.988;2022-12-29T01:34:06;0.70;;;0.50;;
261;SDS011;114;48.260;10.988;2022-12-29T01:36:31;0.70;;;0.63;;
261;SDS011;114;48.260;10.988;2022-12-29T01:38:57;0.80;;;0.50;;
261;SDS011;114;48.260;10.988;2022-12-29T01:41:25;3.10;;;0.57;;
261;SDS011;114;48.260;10.988;2022-12-29T01:43:55;3.80;;;1.00;;
261;SDS011;114;48.260;10.988;2022-12-29T01:49:15;0.90;;;0.70;;
261;SDS011;114;48.260;10.988;2022-12-29T01:51:45;1.63;;;1.00;;
261;SDS011;114;48.260;10.988;2022-12-29T01:54:28;0.63;;;0.63;;
261;SDS011;114;48.260;10.988;2022-12-29T01:56:59;1.33;;;0.70;;
261;SDS011;114;48.260;10.988;2022-12-29T01:59:29;0.80;;;0.80;;
261;SDS011;114;48.260;10.988;2022-12-29T02:01:57;0.80;;;0.80;;
261;SDS011;114;48.260;10.988;2022-12-29T02:04:24;1.10;;;1.10;;
261;SDS011;114;48.260;10.988;2022-12-29T02:07:00;2.00;;;0.80;;
261;SDS011;114;48.260;10.988;2022-12-29T02:09:29;0.93;;;0.83;;
261;SDS011;114;48.260;10.988;2022-12-29T02:11:56;1.07;;;0.97;;
261;SDS011;114;48.260;10.988;2022-12-29T02:14:23;5.80;;;0.80;;
261;SDS011;114;48.260;10.988;2022-12-29T02:16:54;0.80;;;0.80;;
261;SDS011;114;48.260;10.988;2022-12-29T02:39:46;1.07;;;0.80;;
261;SDS011;114;48.260;10.988;2022-12-29T02:48:20;0.70;;;0.70;;
261;SDS011;114;48.260;10.988;2022-12-29T02:51:20;0.60;;;0.60;;
261;SDS011;114;48.260;10.988;2022-12-29T02:53:44;0.40;;;0.40;;
261;SDS011;114;48.260;10.988;2022-12-29T02:56:30;3.50;;;0.60;;
261;SDS011;114;48.260;10.988;2022-12-29T02:58:56;0.63;;;0.50;;
261;SDS011;114;48.260;10.988;2022-12-29T03:07:16;0.50;;;0.50;;
261;SDS011;114;48.260;10.988;2022-12-29T03:15:15;1.73;;;0.50;;
261;SDS011;114;48.260;10.988;2022-12-29T03:18:10;0.40;;;0.40;;
261;SDS011;114;48.260;10.988;2022-12-29T03:20:49;0.47;;;0.47;;
261;SDS011;114;48.260;10.988;2022-12-29T03:23:22;1.03;;;0.43;;
261;SDS011;114;48.260;10.988;2022-12-29T03:25:51;1.33;;;0.77;;
261;SDS011;114;48.260;10.988;2022-12-29T03:28:22;0.70;;;0.50;;
261;SDS011;114;48.260;10.988;2022-12-29T03:31:03;0.80;;;0.47;;
261;SDS011;114;48.260;10.988;2022-12-29T03:33:29;1.00;;;0.60;;
261;SDS011;114;48.260;10.988;2022-12-29T03:36:01;4.37;;;0.93;;
261;SDS011;114;48.260;10.988;2022-12-29T03:38:33;0.60;;;0.40;;
261;SDS011;114;48.260;10.988;2022-12-29T03:41:14;1.63;;;0.40;;
261;SDS011;114;48.260;10.988;2022-12-29T03:43:45;0.90;;;0.50;;
261;SDS011;114;48.260;10.988;2022-12-29T03:46:11;1.33;;;0.40;;
261;SDS011;114;48.260;10.988;2022-12-29T03:48:36;0.30;;;0.30;;
261;SDS011;114;48.260;10.988;2022-12-29T03:51:02;0.50;;;0.40;;
261;SDS011;114;48.260;10.988;2022-12-29T03:53:28;10.03;;;0.70;;
261;SDS011;114;48.260;10.988;2022-12-29T03:55:53;0.73;;;0.50;;
261;SDS011;114;48.260;10.988;2022-12-29T03:58:19;4.33;;;0.43;;
261;SDS011;114;48.260;10.988;2022-12-29T04:00:45;0.57;;;0.40;;
261;SDS011;114;48.260;10.988;2022-12-29T04:03:12;0.40;;;0.40;;
261;SDS011;114;48.260;10.988;2022-12-29T04:05:38;0.80;;;0.50;;
261;SDS011;114;48.260;10.988;2022-12-29T04:08:04;0.43;;;0.40;;
261;SDS011;114;48.260;10.988;2022-12-29T04:10:31;0.80;;;0.60;;
261;SDS011;114;48.260;10.988;2022-12-29T04:12:56;2.37;;;0.43;;
261;SDS011;114;48.260;10.988;2022-12-29T04:15:22;0.57;;;0.50;;
261;SDS011;114;48.260;10.988;2022-12-29T04:17:50;1.90;;;0.50;;
261;SDS011;114;48.260;10.988;2022-12-29T04:20:15;0.50;;;0.50;;
261;SDS011;114;48.260;10.988;2022-12-29T04:23:00;0.57;;;0.50;;
261;SDS011;114;48.260;10.988;2022-12-29T04:25:32;0.73;;;0.73;;
261;SDS011;114;48.260;10.988;2022-12-29T04:27:58;1.07;;;0.70;;
261;SDS011;114;48.260;10.988;2022-12-29T04:30:26;1.83;;;1.30;;
261;SDS011;114;48.260;10.988;2022-12-29T04:32:52;1.00;;;1.00;;
261;SDS011;114;48.260;10.988;2022-12-29T04:35:18;1.20;;;1.10;;
261;SDS011;114;48.260;10.988;2022-12-29T04:37:43;1.10;;;0.90;;
261;SDS011;114;48.260;10.988;2022-12-29T04:40:09;1.30;;;0.70;;
261;SDS011;114;48.260;10.988;2022-12-29T04:42:35;1.37;;;1.30;;
261;SDS011;114;48.260;10.988;2022-12-29T04:45:01;1.70;;;0.90;;
261;SDS011;114;48.260;10.988;2022-12-29T04:47:27;1.60;;;0.60;;
261;SDS011;114;48.260;10.988;2022-12-29T04:49:52;1.40;;;0.67;;
261;SDS011;114;48.260;10.988;2022-12-29T04:52:18;0.60;;;0.47;;
261;SDS011;114;48.260;10.988;2022-12-29T04:54:44;0.70;;;0.70;;
261;SDS011;114;48.260;10.988;2022-12-29T04:57:09;0.53;;;0.53;;
261;SDS011;114;48.260;10.988;2022-12-29T04:59:35;2.23;;;0.50;;
261;SDS011;114;48.260;10.988;2022-12-29T05:02:01;0.53;;;0.53;;
261;SDS011;114;48.260;10.988;2022-12-29T05:04:27;1.23;;;0.60;;
261;SDS011;114;48.260;10.988;2022-12-29T05:06:53;0.57;;;0.57;;
261;SDS011;114;48.260;10.988;2022-12-29T05:09:19;0.60;;;0.50;;
261;SDS011;114;48.260;10.988;2022-12-29T05:11:45;1.90;;;0.60;;
261;SDS011;114;48.260;10.988;2022-12-29T05:14:11;1.07;;;0.50;;
261;SDS011;114;48.260;10.988;2022-12-29T05:16:37;2.73;;;0.50;;
261;SDS011;114;48.260;10.988;2022-12-29T05:19:03;0.70;;;0.47;;
261;SDS011;114;48.260;10.988;2022-12-29T05:21:28;0.90;;;0.50;;
261;SDS011;114;48.260;10.988;2022-12-29T05:23:54;0.47;;;0.40;;
261;SDS011;114;48.260;10.988;2022-12-29T05:26:21;0.50;;;0.30;;
261;SDS011;114;48.260;10.988;2022-12-29T05:28:46;1.23;;;0.50;;
261;SDS011;114;48.260;10.988;2022-12-29T05:31:12;0.57;;;0.53;;
261;SDS011;114;48.260;10.988;2022-12-29T05:33:38;0.40;;;0.40;;
261;SDS011;114;48.260;10.988;2022-12-29T05:36:07;0.70;;;0.70;;
261;SDS011;114;48.260;10.988;2022-12-29T05:38:34;1.77;;;0.47;;
261;SDS011;114;48.260;10.988;2022-12-29T05:41:00;0.60;;;0.50;;
261;SDS011;114;48.260;10.988;2022-12-29T05:43:27;1.27;;;0.40;;
261;SDS011;114;48.260;10.988;2022-12-29T05:45:55;0.93;;;0.50;;
261;SDS011;114;48.260;10.988;2022-12-29T05:48:22;0.50;;;0.50;;
261;SDS011;114;48.260;10.988;2022-12-29T05:50:48;1.23;;;0.50;;
261;SDS011;114;48.260;10.988;2022-12-29T05:53:18;0.70;;;0.60;;
261;SDS011;114;48.260;10.988;2022-12-29T05:55:46;0.50;;;0.50;;
261;SDS011;114;48.260;10.988;2022-12-29T05:58:12;0.70;;;0.43;;
261;SDS011;114;48.260;10.988;2022-12-29T06:00:38;0.60;;;0.60;;
261;SDS011;114;48.260;10.988;2022-12-29T06:03:04;0.50;;;0.50;;
261;SDS011;114;48.260;10.988;2022-12-29T06:05:30;6.90;;;0.63;;
261;SDS011;114;48.260;10.988;2022-12-29T06:07:55;3.40;;;0.50;;
261;SDS011;114;48.260;10.988;2022-12-29T06:10:21;0.90;;;0.50;;
261;SDS011;114;48.260;10.988;2022-12-29T06:12:47;0.70;;;0.50;;
261;SDS011;114;48.260;10.988;2022-12-29T06:15:12;2.67;;;0.60;;
261;SDS011;114;48.260;10.988;2022-12-29T06:17:38;6.53;;;0.43;;
261;SDS011;114;48.260;10.988;2022-12-29T06:20:04;0.63;;;0.50;;
261;SDS011;114;48.260;10.988;2022-12-29T06:22:31;3.63;;;0.90;;
261;SDS011;114;48.260;10.988;2022-12-29T06:24:56;1.50;;;0.60;;
261;SDS011;114;48.260;10.988;2022-12-29T06:27:22;3.10;;;0.60;;
261;SDS011;114;48.260;10.988;2022-12-29T06:29:48;1.57;;;0.73;;
261;SDS011;114;48.260;10.988;2022-12-29T06:32:15;0.80;;;0.60;;
261;SDS011;114;48.260;10.988;2022-12-29T06:34:41;1.13;;;1.03;;
261;SDS011;114;48.260;10.988;2022-12-29T06:37:07;1.43;;;1.07;;
261;SDS011;114;48.260;10.988;2022-12-29T06:39:33;1.53;;;0.80;;
261;SDS011;114;48.260;10.988;2022-12-29T06:41:58;1.23;;;0.93;;
261;SDS011;114;48.260;10.988;2022-12-29T06:44:24;2.30;;;0.70;;
261;SDS011;114;48.260;10.988;2022-12-29T06:46:50;4.10;;;0.93;;
261;SDS011;114;48.260;10.988;2022-12-29T06:49:16;2.40;;;1.03;;
261;SDS011;114;48.260;10.988;2022-12-29T06:51:42;3.60;;;1.27;;
261;SDS011;114;48.260;10.988;2022-12-29T06:54:07;1.90;;;0.70;;
261;SDS011;114;48.260;10.988;2022-12-29T06:56:33;1.83;;;0.80;;
261;SDS011;114;48.260;10.988;2022-12-29T06:58:59;0.80;;;0.70;;
261;SDS011;114;48.260;10.988;2022-12-29T07:01:28;2.40;;;0.60;;
261;SDS011;114;48.260;10.988;2022-12-29T07:03:54;0.87;;;0.87;;
261;SDS011;114;48.260;10.988;2022-12-29T07:06:20;6.20;;;0.87;;
261;SDS011;114;48.260;10.988;2022-12-29T07:08:45;2.20;;;0.83;;
261;SDS011;114;48.260;10.988;2022-12-29T07:11:11;1.83;;;0.60;;
261;SDS011;114;48.260;10.988;2022-12-29T07:13:37;1.20;;;1.10;;
261;SDS011;114;48.260;10.988;2022-12-29T07:16:06;1.90;;;1.13;;
261;SDS011;114;48.260;10.988;2022-12-29T07:18:34;1.83;;;0.50;;
261;SDS011;114;48.260;10.988;2022-12-29T07:21:00;1.40;;;1.00;;
261;SDS011;114;48.260;10.988;2022-12-29T07:23:26;0.70;;;0.70;;
261;SDS011;114;48.260;10.988;2022-12-29T07:25:59;1.30;;;1.20;;
261;SDS011;114;48.260;10.988;2022-12-29T07:28:25;6.27;;;1.37;;
261;SDS011;114;48.260;10.988;2022-12-29T07:30:51;1.83;;;1.50;;
261;SDS011;114;48.260;10.988;2022-12-29T07:33:16;2.17;;;0.80;;
261;SDS011;114;48.260;10.988;2022-12-29T07:35:42;1.17;;;1.07;;
261;SDS011;114;48.260;10.988;2022-12-29T07:38:08;2.80;;;1.10;;
261;SDS011;114;48.260;10.988;2022-12-29T07:40:33;2.10;;;0.87;;
261;SDS011;114;48.260;10.988;2022-12-29T07:42:59;1.83;;;1.10;;
261;SDS011;114;48.260;10.988;2022-12-29T07:45:25;3.47;;;0.97;;
261;SDS011;114;48.260;10.988;2022-12-29T07:47:50;0.97;;;0.80;;
261;SDS011;114;48.260;10.988;2022-12-29T07:50:16;1.67;;;1.20;;
261;SDS011;114;48.260;10.988;2022-12-29T07:52:42;1.23;;;1.10;;
261;SDS011;114;48.260;10.988;2022-12-29T07:55:08;4.10;;;0.97;;
261;SDS011;114;48.260;10.988;2022-12-29T07:57:34;1.43;;;0.97;;
261;SDS011;114;48.260;10.988;2022-12-29T08:00:00;1.37;;;0.70;;
261;SDS011;114;48.260;10.988;2022-12-29T08:02:25;3.00;;;2.00;;
261;SDS011;114;48.260;10.988;2022-12-29T08:04:51;0.97;;;0.83;;
261;SDS011;114;48.260;10.988;2022-12-29T08:07:17;3.40;;;1.17;;
261;SDS011;114;48.260;10.988;2022-12-29T08:09:42;1.43;;;1.33;;
261;SDS011;114;48.260;10.988;2022-12-29T08:12:09;1.23;;;1.13;;
261;SDS011;114;48.260;10.988;2022-12-29T08:14:36;4.03;;;1.80;;
261;SDS011;114;48.260;10.988;2022-12-29T08:17:05;9.77;;;3.30;;
261;SDS011;114;48.260;10.988;2022-12-29T08:19:30;6.27;;;2.70;;
261;SDS011;114;48.260;10.988;2022-12-29T08:21:56;4.50;;;2.07;;
261;SDS011;114;48.260;10.988;2022-12-29T08:24:22;2.40;;;0.97;;
261;SDS011;114;48.260;10.988;2022-12-29T08:26:48;4.27;;;2.47;;
261;SDS011;114;48.260;10.988;2022-12-29T08:29:14;4.60;;;1.73;;
261;SDS011;114;48.260;10.988;2022-12-29T08:31:40;5.43;;;1.47;;
261;SDS011;114;48.260;10.988;2022-12-29T08:34:06;1.87;;;1.60;;
261;SDS011;114;48.260;10.988;2022-12-29T08:36:31;6.33;;;2.03;;
261;SDS011;114;48.260;10.988;2022-12-29T08:38:57;2.83;;;1.30;;
261;SDS011;114;48.260;10.988;2022-12-29T08:41:23;1.83;;;1.73;;
261;SDS011;114;48.260;10.988;2022-12-29T08:43:49;6.00;;;1.90;;
261;SDS011;114;48.260;10.988;2022-12-29T08:46:15;2.73;;;1.90;;
261;SDS011;114;48.260;10.988;2022-12-29T08:48:41;3.30;;;1.50;;
261;SDS011;114;48.260;10.988;2022-12-29T08:51:07;7.23;;;1.30;;
261;SDS011;114;48.260;10.988;2022-12-29T08:53:33;9.57;;;1.30;;
261;SDS011;114;48.260;10.988;2022-12-29T08:56:00;2.00;;;0.97;;
261;SDS011;114;48.260;10.988;2022-12-29T08:58:26;6.57;;;1.97;;
261;SDS011;114;48.260;10.988;2022-12-29T09:00:53;5.30;;;2.37;;
261;SDS011;114;48.260;10.988;2022-12-29T09:03:20;1.70;;;1.13;;
261;SDS011;114;48.260;10.988;2022-12-29T09:05:47;2.90;;;1.40;;
261;SDS011;114;48.260;10.988;2022-12-29T09:08:14;3.47;;;1.70;;
261;SDS011;114;48.260;10.988;2022-12-29T09:10:40;3.40;;;1.80;;
261;SDS011;114;48.260;10.988;2022-12-29T09:13:06;4.23;;;1.53;;
261;SDS011;114;48.260;10.988;2022-12-29T09:15:32;1.77;;;1.20;;
261;SDS011;114;48.260;10.988;2022-12-29T09:17:59;1.10;;;1.00;;
261;SDS011;114;48.260;10.988;2022-12-29T09:20:26;1.43;;;1.20;;
261;SDS011;114;48.260;10.988;2022-12-29T09:22:51;4.00;;;1.10;;
261;SDS011;114;48.260;10.988;2022-12-29T09:25:17;2.03;;;1.50;;
261;SDS011;114;48.260;10.988;2022-12-29T09:27:43;1.90;;;1.50;;
261;SDS011;114;48.260;10.988;2022-12-29T09:30:10;3.03;;;2.00;;
261;SDS011;114;48.260;10.988;2022-12-29T09:32:37;2.23;;;2.00;;
261;SDS011;114;48.260;10.988;2022-12-29T09:35:05;3.60;;;1.43;;
261;SDS011;114;48.260;10.988;2022-12-29T09:37:32;2.80;;;1.17;;
261;SDS011;114;48.260;10.988;2022-12-29T09:39:57;3.20;;;0.80;;
261;SDS011;114;48.260;10.988;2022-12-29T09:42:29;4.10;;;1.00;;
261;SDS011;114;48.260;10.988;2022-12-29T09:47:48;1.53;;;0.80;;
261;SDS011;114;48.260;10.988;2022-12-29T09:55:22;3.43;;;0.87;;
261;SDS011;114;48.260;10.988;2022-12-29T09:58:04;6.43;;;1.33;;
261;SDS011;114;48.260;10.988;2022-12-29T10:00:38;5.13;;;1.03;;
261;SDS011;114;48.260;10.988;2022-12-29T10:03:19;1.67;;;0.63;;
261;SDS011;114;48.260;10.988;2022-12-29T10:11:30;2.80;;;0.70;;
261;SDS011;114;48.260;10.988;2022-12-29T10:22:38;8.53;;;1.07;;
261;SDS011;114;48.260;10.988;2022-12-29T10:25:24;0.90;;;0.60;;
261;SDS011;114;48.260;10.988;2022-12-29T10:27:53;1.47;;;0.60;;
261;SDS011;114;48.260;10.988;2022-12-29T10:30:23;0.83;;;0.80;;
261;SDS011;114;48.260;10.988;2022-12-29T10:32:55;2.90;;;1.57;;
261;SDS011;114;48.260;10.988;2022-12-29T10:38:23;1.00;;;0.60;;
261;SDS011;114;48.260;10.988;2022-12-29T10:40:58;0.70;;;0.70;;
261;SDS011;114;48.260;10.988;2022-12-29T10:43:45;1.00;;;0.70;;
261;SDS011;114;48.260;10.988;2022-12-29T10:46:14;1.13;;;0.63;;
261;SDS011;114;48.260;10.988;2022-12-29T10:49:00;1.90;;;0.70;;
261;SDS011;114;48.260;10.988;2022-12-29T10:51:30;1.13;;;0.80;;
261;SDS011;114;48.260;10.988;2022-12-29T10:54:06;2.57;;;0.70;;
261;SDS011;114;48.260;10.988;2022-12-29T10:56:47;1.77;;;0.80;;
261;SDS011;114;48.260;10.988;2022-12-29T10:59:27;2.40;;;0.60;;
261;SDS011;114;48.260;10.988;2022-12-29T11:04:55;2.93;;;0.60;;
261;SDS011;114;48.260;10.988;2022-12-29T11:07:23;3.90;;;1.13;;
261;SDS011;114;48.260;10.988;2022-12-29T11:09:50;4.83;;;1.20;;
261;SDS011;114;48.260;10.988;2022-12-29T11:15:39;1.20;;;0.60;;
261;SDS011;114;48.260;10.988;2022-12-29T11:18:08;1.90;;;0.70;;
261;SDS011;114;48.260;10.988;2022-12-29T11:21:00;2.77;;;0.93;;
261;SDS011;114;48.260;10.988;2022-12-29T11:28:39;2.97;;;0.73;;
261;SDS011;114;48.260;10.988;2022-12-29T11:31:07;0.93;;;0.70;;
261;SDS011;114;48.260;10.988;2022-12-29T11:33:35;2.50;;;0.73;;
261;SDS011;114;48.260;10.988;2022-12-29T11:36:11;2.87;;;0.63;;
261;SDS011;114;48.260;10.988;2022-12-29T11:38:42;1.83;;;0.70;;
261;SDS011;114;48.260;10.988;2022-12-29T11:41:22;2.60;;;1.03;;
261;SDS011;114;48.260;10.988;2022-12-29T11:43:55;1.53;;;0.80;;
261;SDS011;114;48.260;10.988;2022-12-29T11:46:29;6.77;;;0.77;;
261;SDS011;114;48.260;10.988;2022-12-29T11:48:59;4.23;;;1.07;;
261;SDS011;114;48.260;10.988;2022-12-29T11:51:30;2.17;;;0.87;;
261;SDS011;114;48.260;10.988;2022-12-29T11:54:02;1.03;;;0.60;;
261;SDS011;114;48.260;10.988;2022-12-29T11:56:40;1.83;;;0.50;;
261;SDS011;114;48.260;10.988;2022-12-29T12:01:52;0.93;;;0.60;;
261;SDS011;114;48.260;10.988;2022-12-29T12:04:24;5.40;;;0.60;;
261;SDS011;114;48.260;10.988;2022-12-29T12:09:31;0.90;;;0.90;;
261;SDS011;114;48.260;10.988;2022-12-29T12:12:01;5.83;;;0.70;;
261;SDS011;114;48.260;10.988;2022-12-29T12:14:32;2.83;;;0.60;;
261;SDS011;114;48.260;10.988;2022-12-29T12:17:06;1.43;;;0.70;;
261;SDS011;114;48.260;10.988;2022-12-29T12:22:50;4.50;;;0.80;;
261;SDS011;114;48.260;10.988;2022-12-29T12:25:54;1.87;;;0.67;;
261;SDS011;114;48.260;10.988;2022-12-29T12:30:55;1.33;;;0.80;;
261;SDS011;114;48.260;10.988;2022-12-29T12:36:21;3.80;;;1.13;;
261;SDS011;114;48.260;10.988;2022-12-29T12:39:00;2.47;;;1.50;;
261;SDS011;114;48.260;10.988;2022-12-29T12:47:54;3.17;;;1.20;;
261;SDS011;114;48.260;10.988;2022-12-29T12:50:15;2.60;;;1.20;;
261;SDS011;114;48.260;10.988;2022-12-29T12:58:31;1.77;;;1.67;;
261;SDS011;114;48.260;10.988;2022-12-29T13:04:00;2.10;;;1.13;;
261;SDS011;114;48.260;10.988;2022-12-29T13:12:23;2.70;;;1.13;;
261;SDS011;114;48.260;10.988;2022-12-29T13:31:35;1.70;;;1.27;;
261;SDS011;114;48.260;10.988;2022-12-29T13:37:15;1.67;;;1.57;;
261;SDS011;114;48.260;10.988;2022-12-29T13:39:51;3.83;;;1.70;;
261;SDS011;114;48.260;10.988;2022-12-29T13:42:23;2.83;;;2.53;;
261;SDS011;114;48.260;10.988;2022-12-29T13:47:32;4.53;;;1.60;;
261;SDS011;114;48.260;10.988;2022-12-29T13:50:20;3.60;;;3.30;;
261;SDS011;114;48.260;10.988;2022-12-29T13:55:21;4.60;;;4.20;;
261;SDS011;114;48.260;10.988;2022-12-29T13:58:09;7.57;;;5.90;;
261;SDS011;114;48.260;10.988;2022-12-29T14:01:03;2.63;;;2.43;;
261;SDS011;114;48.260;10.988;2022-12-29T14:03:53;5.30;;;4.80;;
261;SDS011;114;48.260;10.988;2022-12-29T14:06:22;5.90;;;3.87;;
261;SDS011;114;48.260;10.988;2022-12-29T14:08:58;7.60;;;3.53;;
261;SDS011;114;48.260;10.988;2022-12-29T14:11:30;4.30;;;3.87;;
261;SDS011;114;48.260;10.988;2022-12-29T14:14:11;5.97;;;4.77;;
261;SDS011;114;48.260;10.988;2022-12-29T14:16:46;3.00;;;1.43;;
261;SDS011;114;48.260;10.988;2022-12-29T14:19:23;2.73;;;1.30;;
261;SDS011;114;48.260;10.988;2022-12-29T14:21:54;2.83;;;2.63;;
261;SDS011;114;48.260;10.988;2022-12-29T14:27:00;3.70;;;1.80;;
261;SDS011;114;48.260;10.988;2022-12-29T14:29:50;8.30;;;3.30;;
261;SDS011;114;48.260;10.988;2022-12-29T14:34:56;4.17;;;2.80;;
261;SDS011;114;48.260;10.988;2022-12-29T14:37:33;4.40;;;3.80;;
261;SDS011;114;48.260;10.988;2022-12-29T14:42:47;6.77;;;5.03;;
261;SDS011;114;48.260;10.988;2022-12-29T14:52:51;4.20;;;2.00;;
261;SDS011;114;48.260;10.988;2022-12-29T14:58:24;1.83;;;1.17;;
261;SDS011;114;48.260;10.988;2022-12-29T15:00:51;1.90;;;1.80;;
261;SDS011;114;48.260;10.988;2022-12-29T15:03:25;5.03;;;1.27;;
261;SDS011;114;48.260;10.988;2022-12-29T15:05:59;1.53;;;0.73;;
261;SDS011;114;48.260;10.988;2022-12-29T15:08:32;1.73;;;0.93;;
261;SDS011;114;48.260;10.988;2022-12-29T15:13:35;6.53;;;1.70;;
261;SDS011;114;48.260;10.988;2022-12-29T15:16:04;3.50;;;3.27;;
261;SDS011;114;48.260;10.988;2022-12-29T15:18:45;2.30;;;1.93;;
261;SDS011;114;48.260;10.988;2022-12-29T15:21:11;1.87;;;1.77;;
261;SDS011;114;48.260;10.988;2022-12-29T15:23:39;2.20;;;2.03;;
261;SDS011;114;48.260;10.988;2022-12-29T15:26:08;2.50;;;1.57;;
261;SDS011;114;48.260;10.988;2022-12-29T15:28:45;2.37;;;1.93;;
261;SDS011;114;48.260;10.988;2022-12-29T15:31:12;1.50;;;1.40;;
261;SDS011;114;48.260;10.988;2022-12-29T15:33:54;3.67;;;1.17;;
261;SDS011;114;48.260;10.988;2022-12-29T15:36:27;4.33;;;3.50;;
261;SDS011;114;48.260;10.988;2022-12-29T15:38:54;4.03;;;3.03;;
261;SDS011;114;48.260;10.988;2022-12-29T15:43:56;3.50;;;2.93;;
261;SDS011;114;48.260;10.988;2022-12-29T15:46:34;2.90;;;2.30;;
261;SDS011;114;48.260;10.988;2022-12-29T15:49:03;6.13;;;4.87;;
261;SDS011;114;48.260;10.988;2022-12-29T15:51:35;3.00;;;2.80;;
261;SDS011;114;48.260;10.988;2022-12-29T15:54:06;4.60;;;1.40;;
261;SDS011;114;48.260;10.988;2022-12-29T15:56:41;5.33;;;1.87;;
261;SDS011;114;48.260;10.988;2022-12-29T16:01:48;2.40;;;1.67;;
261;SDS011;114;48.260;10.988;2022-12-29T16:04:15;9.70;;;1.90;;
261;SDS011;114;48.260;10.988;2022-12-29T16:06:45;1.70;;;1.60;;
261;SDS011;114;48.260;10.988;2022-12-29T16:09:30;3.90;;;3.50;;
261;SDS011;114;48.260;10.988;2022-12-29T16:12:22;9.27;;;6.17;;
261;SDS011;114;48.260;10.988;2022-12-29T16:14:52;4.40;;;4.00;;
261;SDS011;114;48.260;10.988;2022-12-29T16:17:22;5.93;;;1.70;;
261;SDS011;114;48.260;10.988;2022-12-29T16:19:56;3.70;;;1.50;;
261;SDS011;114;48.260;10.988;2022-12-29T16:25:02;3.10;;;2.80;;
261;SDS011;114;48.260;10.988;2022-12-29T16:30:20;2.00;;;1.80;;
261;SDS011;114;48.260;10.988;2022-12-29T16:32:53;2.33;;;1.83;;
261;SDS011;114;48.260;10.988;2022-12-29T16:35:25;3.90;;;2.27;;
261;SDS011;114;48.260;10.988;2022-12-29T16:40:51;4.57;;;2.03;;
261;SDS011;114;48.260;10.988;2022-12-29T16:43:27;6.00;;;1.30;;
261;SDS011;114;48.260;10.988;2022-12-29T16:48:33;2.50;;;1.50;;
261;SDS011;114;48.260;10.988;2022-12-29T16:51:33;3.37;;;1.73;;
261;SDS011;114;48.260;10.988;2022-12-29T16:54:13;1.60;;;0.93;;
261;SDS011;114;48.260;10.988;2022-12-29T16:56:47;3.60;;;2.13;;
261;SDS011;114;48.260;10.988;2022-12-29T16:59:25;2.73;;;2.07;;
261;SDS011;114;48.260;10.988;2022-12-29T17:02:04;5.03;;;1.70;;
261;SDS011;114;48.260;10.988;2022-12-29T17:04:33;1.10;;;0.80;;
261;SDS011;114;48.260;10.988;2022-12-29T17:07:00;1.50;;;1.13;;
261;SDS011;114;48.260;10.988;2022-12-29T17:09:27;2.60;;;2.30;;
261;SDS011;114;48.260;10.988;2022-12-29T17:11:55;6.30;;;3.80;;
261;SDS011;114;48.260;10.988;2022-12-29T17:14:30;4.17;;;2.30;;
261;SDS011;114;48.260;10.988;2022-12-29T17:17:00;5.37;;;2.70;;
261;SDS011;114;48.260;10.988;2022-12-29T17:19:30;2.40;;;1.77;;
261;SDS011;114;48.260;10.988;2022-12-29T17:22:03;2.70;;;0.97;;
261;SDS011;114;48.260;10.988;2022-12-29T17:24:36;6.73;;;1.20;;
261;SDS011;114;48.260;10.988;2022-12-29T17:27:04;3.73;;;1.30;;
261;SDS011;114;48.260;10.988;2022-12-29T17:29:34;1.60;;;1.00;;
261;SDS011;114;48.260;10.988;2022-12-29T17:32:03;0.70;;;0.70;;
261;SDS011;114;48.260;10.988;2022-12-29T17:34:33;4.77;;;2.00;;
261;SDS011;114;48.260;10.988;2022-12-29T17:36:59;1.90;;;0.70;;
261;SDS011;114;48.260;10.988;2022-12-29T17:39:25;6.03;;;2.20;;
261;SDS011;114;48.260;10.988;2022-12-29T17:41:52;4.93;;;2.10;;
261;SDS011;114;48.260;10.988;2022-12-29T17:44:18;2.27;;;1.60;;
261;SDS011;114;48.260;10.988;2022-12-29T17:46:47;1.30;;;1.20;;
261;SDS011;114;48.260;10.988;2022-12-29T17:49:16;2.73;;;2.43;;
261;SDS011;114;48.260;10.988;2022-12-29T17:51:43;3.83;;;3.03;;
261;SDS011;114;48.260;10.988;2022-12-29T17:54:18;3.00;;;2.53;;
261;SDS011;114;48.260;10.988;2022-12-29T17:56:49;9.43;;;5.67;;
261;SDS011;114;48.260;10.988;2022-12-29T17:59:15;4.17;;;3.33;;
261;SDS011;114;48.260;10.988;2022-12-29T18:01:42;4.73;;;3.70;;
261;SDS011;114;48.260;10.988;2022-12-29T18:04:12;4.80;;;3.43;;
261;SDS011;114;48.260;10.988;2022-12-29T18:06:40;5.77;;;1.90;;
261;SDS011;114;48.260;10.988;2022-12-29T18:09:06;2.80;;;2.57;;
261;SDS011;114;48.260;10.988;2022-12-29T18:11:34;1.10;;;1.10;;
261;SDS011;114;48.260;10.988;2022-12-29T18:14:07;2.13;;;1.93;;
261;SDS011;114;48.260;10.988;2022-12-29T18:16:38;1.70;;;1.70;;
261;SDS011;114;48.260;10.988;2022-12-29T18:19:04;6.27;;;3.60;;
261;SDS011;114;48.260;10.988;2022-12-29T18:21:29;3.37;;;2.10;;
261;SDS011;114;48.260;10.988;2022-12-29T18:23:55;1.37;;;1.27;;
261;SDS011;114;48.260;10.988;2022-12-29T18:26:22;1.70;;;0.90;;
261;SDS011;114;48.260;10.988;2022-12-29T18:28:50;1.37;;;1.27;;
261;SDS011;114;48.260;10.988;2022-12-29T18:31:28;2.10;;;1.57;;
261;SDS011;114;48.260;10.988;2022-12-29T18:33:56;4.03;;;1.73;;
261;SDS011;114;48.260;10.988;2022-12-29T18:36:23;4.80;;;1.47;;
261;SDS011;114;48.260;10.988;2022-12-29T18:38:50;3.23;;;1.57;;
261;SDS011;114;48.260;10.988;2022-12-29T18:41:22;1.40;;;1.30;;
261;SDS011;114;48.260;10.988;2022-12-29T18:43:50;1.70;;;0.73;;